createdAt,value
2018-08-04T00:00:31.787Z,62.52
2018-08-04T00:05:26.482Z,61.90
2018-08-04T00:10:22.086Z,62.03
2018-08-04T00:15:17.000Z,62.11
2018-08-04T00:20:11.629Z,62.45
2018-08-04T00:25:06.415Z,62.88
2018-08-04T00:30:01.052Z,63.75
2018-08-04T00:34:55.678Z,63.74
2018-08-04T00:39:50.472Z,62.98
2018-08-04T00:44:45.127Z,62.31
2018-08-04T00:49:39.778Z,62.69
2018-08-04T00:54:34.345Z,63.13
2018-08-04T00:59:28.976Z,64.17
2018-08-04T01:04:23.666Z,62.45
2018-08-04T01:09:18.266Z,63.65
2018-08-04T01:14:12.879Z,64.58
2018-08-04T01:19:07.493Z,65.95
2018-08-04T01:24:02.033Z,66.18
2018-08-04T01:28:57.525Z,65.22
2018-08-04T01:33:52.126Z,65.43
2018-08-04T01:38:46.752Z,66.16
2018-08-04T01:43:41.382Z,65.68
2018-08-04T01:48:36.033Z,64.95
2018-08-04T01:53:30.722Z,65.00
2018-08-04T01:58:25.315Z,65.51
2018-08-04T02:03:19.923Z,65.34
2018-08-04T02:08:14.526Z,65.43
2018-08-04T02:13:09.193Z,67.39
2018-08-04T02:18:03.804Z,66.45
2018-08-04T02:22:58.396Z,67.22
2018-08-04T02:27:52.695Z,65.70
2018-08-04T02:32:47.265Z,66.66
2018-08-04T02:37:41.959Z,67.53
2018-08-04T02:42:36.594Z,65.77
2018-08-04T02:47:31.170Z,67.08
2018-08-04T02:52:26.089Z,66.97
2018-08-04T02:57:20.704Z,67.67
2018-08-04T03:02:15.369Z,67.18
2018-08-04T03:07:10.275Z,68.61
2018-08-04T03:12:05.329Z,70.59
2018-08-04T03:16:59.880Z,68.88
2018-08-04T03:21:54.538Z,68.08
2018-08-04T03:26:49.142Z,69.08
2018-08-04T03:31:43.784Z,67.98
2018-08-04T03:36:38.934Z,68.97
2018-08-04T03:41:33.592Z,68.53
2018-08-04T03:46:28.180Z,68.39
2018-08-04T03:51:22.766Z,68.12
2018-08-04T03:56:17.379Z,69.05
2018-08-04T04:01:11.988Z,70.77
2018-08-04T04:06:06.724Z,70.03
2018-08-04T04:11:01.354Z,69.89
2018-08-04T04:15:56.034Z,68.59
2018-08-04T04:20:50.682Z,68.44
2018-08-04T04:25:45.304Z,69.75
2018-08-04T04:30:39.892Z,68.66
2018-08-04T04:35:34.549Z,70.08
2018-08-04T04:40:29.197Z,69.08
2018-08-04T04:45:23.779Z,68.38
2018-08-04T04:50:18.399Z,68.35
2018-08-04T04:55:13.018Z,67.54
2018-08-04T05:00:07.691Z,65.14
2018-08-04T05:05:02.295Z,64.52
2018-08-04T05:09:57.412Z,65.79
2018-08-04T05:14:51.982Z,64.58
2018-08-04T05:19:46.601Z,64.05
2018-08-04T05:24:41.209Z,64.48
2018-08-04T05:29:35.975Z,64.88
2018-08-04T05:34:30.599Z,64.42
2018-08-04T05:39:25.249Z,65.11
2018-08-04T05:44:19.934Z,65.12
2018-08-04T05:49:14.551Z,64.17
2018-08-04T05:54:08.844Z,63.90
2018-08-04T05:59:03.445Z,64.81
2018-08-04T06:03:58.053Z,65.39
2018-08-04T06:08:52.754Z,66.17
2018-08-04T06:13:47.916Z,67.74
2018-08-04T06:18:43.950Z,65.67
2018-08-04T06:23:38.526Z,65.46
2018-08-04T06:28:33.163Z,65.54
2018-08-04T06:33:27.755Z,64.81
2018-08-04T06:38:22.379Z,64.60
2018-08-04T06:43:17.013Z,63.81
2018-08-04T06:48:11.631Z,62.43
2018-08-04T06:53:06.335Z,61.99
2018-08-04T06:58:00.978Z,60.88
2018-08-04T07:02:55.670Z,62.42
2018-08-04T07:07:50.291Z,62.17
2018-08-04T07:12:44.970Z,61.00
2018-08-04T07:17:39.548Z,58.86
2018-08-04T07:22:34.238Z,57.31
2018-08-04T07:27:28.919Z,57.27
2018-08-04T07:32:23.507Z,57.44
2018-08-04T07:37:17.790Z,54.03
2018-08-04T07:42:12.429Z,53.79
2018-08-04T07:47:07.151Z,52.81
2018-08-04T07:52:02.428Z,52.41
2018-08-04T07:56:57.212Z,52.88
2018-08-04T08:01:51.930Z,52.26
2018-08-04T08:06:46.546Z,50.65
2018-08-04T08:11:41.214Z,51.06
2018-08-04T08:16:35.792Z,50.55
2018-08-04T08:21:30.475Z,49.97
2018-08-04T08:26:25.069Z,48.80
2018-08-04T08:31:19.931Z,47.11
2018-08-04T08:36:14.570Z,47.80
2018-08-04T08:41:10.059Z,47.79
2018-08-04T08:46:04.417Z,48.14
2018-08-04T08:50:59.067Z,46.62
2018-08-04T08:55:53.983Z,44.25
2018-08-04T09:00:48.345Z,43.47
2018-08-04T09:05:43.017Z,45.01
2018-08-04T09:10:37.664Z,41.70
2018-08-04T09:15:32.327Z,41.68
2018-08-04T09:20:28.370Z,42.95
2018-08-04T09:25:23.509Z,42.77
2018-08-04T09:30:18.102Z,43.54
2018-08-04T09:35:13.896Z,43.79
2018-08-04T09:40:11.894Z,42.24
2018-08-04T09:45:08.192Z,42.75
2018-08-04T09:50:02.842Z,42.98
2018-08-04T09:54:57.453Z,42.34
2018-08-04T09:59:52.153Z,39.95
2018-08-04T10:04:46.759Z,41.69
2018-08-04T10:09:41.371Z,41.18
2018-08-04T10:14:35.964Z,39.96
2018-08-04T10:19:30.552Z,38.69
2018-08-04T10:24:25.133Z,40.81
2018-08-04T10:29:19.748Z,39.26
2018-08-04T10:34:14.320Z,37.92
2018-08-04T10:39:10.377Z,35.87
2018-08-04T10:44:05.097Z,34.70
2018-08-04T10:48:59.728Z,34.11
2018-08-04T10:53:54.438Z,33.55
2018-08-04T10:58:48.999Z,33.24
2018-08-04T11:03:46.520Z,32.12
2018-08-04T11:08:41.146Z,29.65
2018-08-04T11:13:35.746Z,31.74
2018-08-04T11:18:30.368Z,30.08
2018-08-04T11:23:24.958Z,31.14
2018-08-04T11:28:19.509Z,31.67
2018-08-04T11:33:13.778Z,32.25
2018-08-04T11:38:08.347Z,31.62
2018-08-04T11:43:02.944Z,31.76
2018-08-04T11:47:57.551Z,28.33
2018-08-04T11:52:52.451Z,28.30
2018-08-04T11:57:47.064Z,28.82
2018-08-04T12:02:41.339Z,34.41
2018-08-04T12:07:35.974Z,36.29
2018-08-04T12:12:30.615Z,35.02
2018-08-04T12:17:25.385Z,35.91
2018-08-04T12:22:21.626Z,37.94
2018-08-04T12:27:16.271Z,37.08
2018-08-04T12:32:10.889Z,38.15
2018-08-04T12:37:05.569Z,37.23
2018-08-04T12:42:00.197Z,36.14
2018-08-04T12:46:54.815Z,36.44
2018-08-04T12:51:49.493Z,34.29
2018-08-04T12:56:44.100Z,33.44
2018-08-04T13:01:38.730Z,32.00
2018-08-04T13:06:33.813Z,32.98
2018-08-04T13:11:28.429Z,35.97
2018-08-04T13:16:23.089Z,34.16
2018-08-04T13:21:17.738Z,31.88
2018-08-04T13:26:12.328Z,33.08
2018-08-04T13:31:06.959Z,33.96
2018-08-04T13:36:01.583Z,35.17
2018-08-04T13:40:59.593Z,34.35
2018-08-04T13:45:54.367Z,35.04
2018-08-04T13:50:49.138Z,35.68
2018-08-04T13:55:43.896Z,36.01
2018-08-04T14:00:38.743Z,38.26
2018-08-04T14:05:33.640Z,37.78
2018-08-04T14:10:28.417Z,39.30
2018-08-04T14:15:22.788Z,40.53
2018-08-04T14:20:17.523Z,38.50
2018-08-04T14:25:25.123Z,39.68
2018-08-04T14:30:19.840Z,38.73
2018-08-04T14:35:14.512Z,37.82
2018-08-04T14:40:09.372Z,40.28
2018-08-04T14:45:04.232Z,38.29
2018-08-04T14:49:58.990Z,37.98
2018-08-04T14:54:53.752Z,35.68
2018-08-04T14:59:48.535Z,35.80
2018-08-04T15:04:43.419Z,37.45
2018-08-04T15:09:38.011Z,37.58
2018-08-04T15:14:32.707Z,39.88
2018-08-04T15:19:27.821Z,40.34
2018-08-04T15:24:22.630Z,41.81
2018-08-04T15:29:19.048Z,40.00
2018-08-04T15:34:13.918Z,40.55
2018-08-04T15:39:10.316Z,42.29
2018-08-04T15:44:04.907Z,40.40
2018-08-04T15:48:59.624Z,41.22
2018-08-04T15:53:54.401Z,43.46
2018-08-04T15:58:49.188Z,41.78
2018-08-04T16:03:44.206Z,41.88
2018-08-04T16:08:39.252Z,42.51
2018-08-04T16:13:34.223Z,41.41
2018-08-04T16:18:29.086Z,43.18
2018-08-04T16:23:23.820Z,42.56
2018-08-04T16:28:18.748Z,43.12
2018-08-04T16:33:13.584Z,42.60
2018-08-04T16:38:08.276Z,41.62
2018-08-04T16:43:02.998Z,42.20
2018-08-04T16:47:57.707Z,41.39
2018-08-04T16:52:52.441Z,40.68
2018-08-04T16:57:47.222Z,42.57
2018-08-04T17:02:42.361Z,44.12
2018-08-04T17:07:37.288Z,44.97
2018-08-04T17:12:32.211Z,45.42
2018-08-04T17:17:27.008Z,46.08
2018-08-04T17:22:21.785Z,44.82
2018-08-04T17:27:25.478Z,44.82
2018-08-04T17:32:21.176Z,44.71
2018-08-04T17:37:15.933Z,45.06
2018-08-04T17:42:10.651Z,46.24
2018-08-04T17:47:05.499Z,47.75
2018-08-04T17:52:00.320Z,49.80
2018-08-04T17:56:55.184Z,49.35
2018-08-04T18:01:50.791Z,50.17
2018-08-04T18:06:45.647Z,51.05
2018-08-04T18:11:40.860Z,51.38
2018-08-04T18:16:35.868Z,51.75
2018-08-04T18:21:30.929Z,51.71
2018-08-04T18:26:25.701Z,52.09
2018-08-04T18:31:20.468Z,53.44
2018-08-04T18:36:15.342Z,53.13
2018-08-04T18:41:10.132Z,54.01
2018-08-04T18:46:04.933Z,55.55
2018-08-04T18:50:59.834Z,54.55
2018-08-04T18:55:54.739Z,54.08
2018-08-04T19:00:49.511Z,55.08
2018-08-04T19:05:44.383Z,54.35
2018-08-04T19:10:39.171Z,53.73
2018-08-04T19:15:34.065Z,53.53
2018-08-04T19:20:28.959Z,53.14
2018-08-04T19:25:24.727Z,53.94
2018-08-04T19:30:19.517Z,53.69
2018-08-04T19:35:14.268Z,55.28
2018-08-04T19:40:09.255Z,56.70
2018-08-04T19:45:04.259Z,56.22
2018-08-04T19:49:59.113Z,55.30
2018-08-04T19:54:54.261Z,55.56
2018-08-04T19:59:49.851Z,54.06
2018-08-04T20:04:44.709Z,54.23
2018-08-04T20:09:39.667Z,54.30
2018-08-04T20:14:34.558Z,54.68
2018-08-04T20:19:29.399Z,54.96
2018-08-04T20:24:24.204Z,54.76
2018-08-04T20:29:19.234Z,55.49
2018-08-04T20:34:14.105Z,56.51
2018-08-04T20:39:10.723Z,56.88
2018-08-04T20:44:05.664Z,55.09
2018-08-04T20:49:00.464Z,55.29
2018-08-04T20:53:55.263Z,54.22
2018-08-04T20:58:50.239Z,55.89
2018-08-04T21:03:45.131Z,56.42
2018-08-04T21:08:39.939Z,56.72
2018-08-04T21:13:34.748Z,57.45
2018-08-04T21:18:29.645Z,57.78
2018-08-04T21:23:24.439Z,57.21
2018-08-04T21:28:20.032Z,57.60
2018-08-04T21:33:14.973Z,56.49
2018-08-04T21:38:09.736Z,57.71
2018-08-04T21:43:04.554Z,56.50
2018-08-04T21:47:59.319Z,57.40
2018-08-04T21:52:55.807Z,57.93
2018-08-04T21:57:50.639Z,57.51
2018-08-04T22:02:58.967Z,58.85
2018-08-04T22:08:11.566Z,59.08
2018-08-04T22:13:06.813Z,60.96
2018-08-04T22:18:01.727Z,60.33
2018-08-04T22:22:56.244Z,60.24
2018-08-04T22:27:51.310Z,59.97
2018-08-04T22:32:46.596Z,61.31
2018-08-04T22:37:41.922Z,61.01
2018-08-04T22:42:37.925Z,62.49
2018-08-04T22:47:32.834Z,61.94
2018-08-04T22:52:27.842Z,60.67
2018-08-04T22:57:22.607Z,61.88
2018-08-04T23:02:17.317Z,62.02
2018-08-04T23:07:12.123Z,63.77
2018-08-04T23:12:07.004Z,63.42
2018-08-04T23:17:02.018Z,62.69
2018-08-04T23:21:56.808Z,63.17
2018-08-04T23:26:52.042Z,63.46
2018-08-04T23:31:47.129Z,62.80
2018-08-04T23:36:41.910Z,64.16
2018-08-04T23:41:36.832Z,63.29
2018-08-04T23:46:31.338Z,61.97
2018-08-04T23:51:26.934Z,62.53
2018-08-04T23:56:21.812Z,64.00
